sensor_id;sensor_type;location;lat;lon;timestamp;P1;durP1;ratioP1;P2;durP2;ratioP2
7273;SDS011;3678;60.002;17.846;2023-03-14T00:01:33;0.30;;;0.30;;
7273;SDS011;3678;60.002;17.846;2023-03-14T00:04:01;0.30;;;0.30;;
7273;SDS011;3678;60.002;17.846;2023-03-14T00:06:30;0.20;;;0.20;;
7273;SDS011;3678;60.002;17.846;2023-03-14T00:08:58;0.20;;;0.20;;
7273;SDS011;3678;60.002;17.846;2023-03-14T00:11:25;0.20;;;0.20;;
7273;SDS011;3678;60.002;17.846;2023-03-14T00:13:52;0.30;;;0.30;;
7273;SDS011;3678;60.002;17.846;2023-03-14T00:16:19;0.10;;;0.10;;
7273;SDS011;3678;60.002;17.846;2023-03-14T00:18:47;0.10;;;0.10;;
7273;SDS011;3678;60.002;17.846;2023-03-14T00:21:15;0.53;;;0.53;;
7273;SDS011;3678;60.002;17.846;2023-03-14T00:23:43;0.20;;;0.20;;
7273;SDS011;3678;60.002;17.846;2023-03-14T00:26:11;0.20;;;0.20;;
7273;SDS011;3678;60.002;17.846;2023-03-14T00:28:38;0.30;;;0.30;;
7273;SDS011;3678;60.002;17.846;2023-03-14T00:31:06;0.20;;;0.20;;
7273;SDS011;3678;60.002;17.846;2023-03-14T00:33:34;0.17;;;0.17;;
7273;SDS011;3678;60.002;17.846;2023-03-14T00:36:02;0.20;;;0.20;;
7273;SDS011;3678;60.002;17.846;2023-03-14T00:38:32;0.20;;;0.20;;
7273;SDS011;3678;60.002;17.846;2023-03-14T00:40:59;0.30;;;0.30;;
7273;SDS011;3678;60.002;17.846;2023-03-14T00:43:29;0.20;;;0.20;;
7273;SDS011;3678;60.002;17.846;2023-03-14T00:45:56;0.20;;;0.20;;
7273;SDS011;3678;60.002;17.846;2023-03-14T00:48:23;0.10;;;0.10;;
7273;SDS011;3678;60.002;17.846;2023-03-14T00:50:51;0.30;;;0.30;;
7273;SDS011;3678;60.002;17.846;2023-03-14T00:53:18;0.10;;;0.10;;
7273;SDS011;3678;60.002;17.846;2023-03-14T00:55:46;0.10;;;0.10;;
7273;SDS011;3678;60.002;17.846;2023-03-14T00:58:14;0.10;;;0.10;;
7273;SDS011;3678;60.002;17.846;2023-03-14T01:00:42;0.20;;;0.20;;
7273;SDS011;3678;60.002;17.846;2023-03-14T01:03:09;0.20;;;0.20;;
7273;SDS011;3678;60.002;17.846;2023-03-14T01:05:37;0.20;;;0.20;;
7273;SDS011;3678;60.002;17.846;2023-03-14T01:08:04;0.30;;;0.30;;
7273;SDS011;3678;60.002;17.846;2023-03-14T01:10:32;0.20;;;0.20;;
7273;SDS011;3678;60.002;17.846;2023-03-14T01:13:00;0.20;;;0.20;;
7273;SDS011;3678;60.002;17.846;2023-03-14T01:15:27;0.20;;;0.20;;
7273;SDS011;3678;60.002;17.846;2023-03-14T01:17:55;0.20;;;0.20;;
7273;SDS011;3678;60.002;17.846;2023-03-14T01:20:22;0.20;;;0.20;;
7273;SDS011;3678;60.002;17.846;2023-03-14T01:22:49;0.20;;;0.20;;
7273;SDS011;3678;60.002;17.846;2023-03-14T01:25:16;0.27;;;0.27;;
7273;SDS011;3678;60.002;17.846;2023-03-14T01:27:43;0.27;;;0.27;;
7273;SDS011;3678;60.002;17.846;2023-03-14T01:30:12;0.20;;;0.20;;
7273;SDS011;3678;60.002;17.846;2023-03-14T01:32:40;0.20;;;0.20;;
7273;SDS011;3678;60.002;17.846;2023-03-14T01:35:07;0.30;;;0.30;;
7273;SDS011;3678;60.002;17.846;2023-03-14T01:37:34;0.20;;;0.20;;
7273;SDS011;3678;60.002;17.846;2023-03-14T01:40:01;0.10;;;0.10;;
7273;SDS011;3678;60.002;17.846;2023-03-14T01:42:30;0.20;;;0.20;;
7273;SDS011;3678;60.002;17.846;2023-03-14T01:44:57;0.23;;;0.23;;
7273;SDS011;3678;60.002;17.846;2023-03-14T01:47:26;0.20;;;0.20;;
7273;SDS011;3678;60.002;17.846;2023-03-14T01:49:55;0.20;;;0.20;;
7273;SDS011;3678;60.002;17.846;2023-03-14T01:52:25;0.30;;;0.30;;
7273;SDS011;3678;60.002;17.846;2023-03-14T01:54:54;0.20;;;0.20;;
7273;SDS011;3678;60.002;17.846;2023-03-14T01:57:23;0.23;;;0.23;;
7273;SDS011;3678;60.002;17.846;2023-03-14T01:59:52;0.20;;;0.20;;
7273;SDS011;3678;60.002;17.846;2023-03-14T02:02:20;0.27;;;0.27;;
7273;SDS011;3678;60.002;17.846;2023-03-14T02:04:49;0.20;;;0.20;;
7273;SDS011;3678;60.002;17.846;2023-03-14T02:07:18;0.23;;;0.23;;
7273;SDS011;3678;60.002;17.846;2023-03-14T02:09:46;0.23;;;0.23;;
7273;SDS011;3678;60.002;17.846;2023-03-14T02:12:15;0.20;;;0.20;;
7273;SDS011;3678;60.002;17.846;2023-03-14T02:14:43;0.20;;;0.20;;
7273;SDS011;3678;60.002;17.846;2023-03-14T02:17:13;0.20;;;0.20;;
7273;SDS011;3678;60.002;17.846;2023-03-14T02:19:48;0.30;;;0.30;;
7273;SDS011;3678;60.002;17.846;2023-03-14T02:22:18;0.20;;;0.20;;
7273;SDS011;3678;60.002;17.846;2023-03-14T02:24:46;0.20;;;0.20;;
7273;SDS011;3678;60.002;17.846;2023-03-14T02:27:19;0.20;;;0.20;;
7273;SDS011;3678;60.002;17.846;2023-03-14T02:29:49;0.20;;;0.20;;
7273;SDS011;3678;60.002;17.846;2023-03-14T02:32:17;0.20;;;0.20;;
7273;SDS011;3678;60.002;17.846;2023-03-14T02:34:45;0.20;;;0.20;;
7273;SDS011;3678;60.002;17.846;2023-03-14T02:37:15;0.30;;;0.30;;
7273;SDS011;3678;60.002;17.846;2023-03-14T02:39:44;0.20;;;0.20;;
7273;SDS011;3678;60.002;17.846;2023-03-14T02:42:14;0.20;;;0.20;;
7273;SDS011;3678;60.002;17.846;2023-03-14T02:44:50;0.20;;;0.20;;
7273;SDS011;3678;60.002;17.846;2023-03-14T02:47:18;0.20;;;0.20;;
7273;SDS011;3678;60.002;17.846;2023-03-14T02:49:46;0.20;;;0.20;;
7273;SDS011;3678;60.002;17.846;2023-03-14T02:52:13;0.20;;;0.20;;
7273;SDS011;3678;60.002;17.846;2023-03-14T02:54:40;0.10;;;0.10;;
7273;SDS011;3678;60.002;17.846;2023-03-14T02:57:07;0.20;;;0.20;;
7273;SDS011;3678;60.002;17.846;2023-03-14T02:59:34;0.20;;;0.20;;
7273;SDS011;3678;60.002;17.846;2023-03-14T03:02:03;0.20;;;0.20;;
7273;SDS011;3678;60.002;17.846;2023-03-14T03:04:30;0.20;;;0.20;;
7273;SDS011;3678;60.002;17.846;2023-03-14T03:06:57;0.20;;;0.20;;
7273;SDS011;3678;60.002;17.846;2023-03-14T03:09:24;0.27;;;0.27;;
7273;SDS011;3678;60.002;17.846;2023-03-14T03:11:51;0.30;;;0.30;;
7273;SDS011;3678;60.002;17.846;2023-03-14T03:14:18;0.20;;;0.20;;
7273;SDS011;3678;60.002;17.846;2023-03-14T03:16:45;0.30;;;0.30;;
7273;SDS011;3678;60.002;17.846;2023-03-14T03:19:14;0.30;;;0.30;;
7273;SDS011;3678;60.002;17.846;2023-03-14T03:21:42;0.20;;;0.20;;
7273;SDS011;3678;60.002;17.846;2023-03-14T03:24:09;0.20;;;0.20;;
7273;SDS011;3678;60.002;17.846;2023-03-14T03:26:37;0.20;;;0.20;;
7273;SDS011;3678;60.002;17.846;2023-03-14T03:29:04;0.20;;;0.20;;
7273;SDS011;3678;60.002;17.846;2023-03-14T03:31:31;0.20;;;0.20;;
7273;SDS011;3678;60.002;17.846;2023-03-14T03:33:58;0.30;;;0.30;;
7273;SDS011;3678;60.002;17.846;2023-03-14T03:36:27;0.20;;;0.20;;
7273;SDS011;3678;60.002;17.846;2023-03-14T03:38:54;0.30;;;0.30;;
7273;SDS011;3678;60.002;17.846;2023-03-14T03:41:21;0.27;;;0.27;;
7273;SDS011;3678;60.002;17.846;2023-03-14T03:43:48;0.30;;;0.30;;
7273;SDS011;3678;60.002;17.846;2023-03-14T03:46:15;0.30;;;0.30;;
7273;SDS011;3678;60.002;17.846;2023-03-14T03:48:42;0.20;;;0.20;;
7273;SDS011;3678;60.002;17.846;2023-03-14T03:51:11;0.30;;;0.30;;
7273;SDS011;3678;60.002;17.846;2023-03-14T03:53:41;0.20;;;0.20;;
7273;SDS011;3678;60.002;17.846;2023-03-14T03:56:08;0.20;;;0.20;;
7273;SDS011;3678;60.002;17.846;2023-03-14T03:58:35;3.23;;;1.20;;
7273;SDS011;3678;60.002;17.846;2023-03-14T04:01:04;4.60;;;0.90;;
7273;SDS011;3678;60.002;17.846;2023-03-14T04:03:31;5.43;;;1.13;;
7273;SDS011;3678;60.002;17.846;2023-03-14T04:05:58;2.87;;;0.70;;
7273;SDS011;3678;60.002;17.846;2023-03-14T04:08:25;1.80;;;0.87;;
7273;SDS011;3678;60.002;17.846;2023-03-14T04:10:55;1.50;;;0.60;;
7273;SDS011;3678;60.002;17.846;2023-03-14T04:13:22;0.90;;;0.77;;
7273;SDS011;3678;60.002;17.846;2023-03-14T04:15:49;1.73;;;1.00;;
7273;SDS011;3678;60.002;17.846;2023-03-14T04:18:17;2.17;;;0.90;;
7273;SDS011;3678;60.002;17.846;2023-03-14T04:20:44;1.50;;;1.00;;
7273;SDS011;3678;60.002;17.846;2023-03-14T04:23:11;5.07;;;1.30;;
7273;SDS011;3678;60.002;17.846;2023-03-14T04:25:38;3.20;;;0.93;;
7273;SDS011;3678;60.002;17.846;2023-03-14T04:28:07;2.80;;;1.00;;
7273;SDS011;3678;60.002;17.846;2023-03-14T04:30:34;1.53;;;1.07;;
7273;SDS011;3678;60.002;17.846;2023-03-14T04:33:01;1.87;;;1.00;;
7273;SDS011;3678;60.002;17.846;2023-03-14T04:35:29;1.00;;;0.80;;
7273;SDS011;3678;60.002;17.846;2023-03-14T04:37:57;2.70;;;0.90;;
7273;SDS011;3678;60.002;17.846;2023-03-14T04:40:24;6.70;;;1.10;;
7273;SDS011;3678;60.002;17.846;2023-03-14T04:42:51;2.50;;;1.43;;
7273;SDS011;3678;60.002;17.846;2023-03-14T04:45:20;1.43;;;0.80;;
7273;SDS011;3678;60.002;17.846;2023-03-14T04:47:47;1.57;;;0.93;;
7273;SDS011;3678;60.002;17.846;2023-03-14T04:50:14;1.67;;;1.00;;
7273;SDS011;3678;60.002;17.846;2023-03-14T04:52:41;1.60;;;0.93;;
7273;SDS011;3678;60.002;17.846;2023-03-14T04:55:09;5.90;;;1.17;;
7273;SDS011;3678;60.002;17.846;2023-03-14T04:57:36;1.63;;;1.00;;
7273;SDS011;3678;60.002;17.846;2023-03-14T05:00:03;3.27;;;1.17;;
7273;SDS011;3678;60.002;17.846;2023-03-14T05:02:33;1.33;;;1.20;;
7273;SDS011;3678;60.002;17.846;2023-03-14T05:05:01;4.87;;;1.40;;
7273;SDS011;3678;60.002;17.846;2023-03-14T05:07:28;1.20;;;0.90;;
7273;SDS011;3678;60.002;17.846;2023-03-14T05:09:55;5.50;;;1.50;;
7273;SDS011;3678;60.002;17.846;2023-03-14T05:12:22;5.23;;;1.47;;
7273;SDS011;3678;60.002;17.846;2023-03-14T05:14:50;1.93;;;0.93;;
7273;SDS011;3678;60.002;17.846;2023-03-14T05:17:17;3.17;;;1.10;;
7273;SDS011;3678;60.002;17.846;2023-03-14T05:19:45;2.23;;;1.60;;
7273;SDS011;3678;60.002;17.846;2023-03-14T05:22:12;6.80;;;1.10;;
7273;SDS011;3678;60.002;17.846;2023-03-14T05:24:39;2.83;;;1.33;;
7273;SDS011;3678;60.002;17.846;2023-03-14T05:27:07;3.30;;;1.03;;
7273;SDS011;3678;60.002;17.846;2023-03-14T05:29:34;3.03;;;1.20;;
7273;SDS011;3678;60.002;17.846;2023-03-14T05:32:01;1.00;;;0.90;;
7273;SDS011;3678;60.002;17.846;2023-03-14T05:34:29;1.03;;;0.80;;
7273;SDS011;3678;60.002;17.846;2023-03-14T05:36:57;2.77;;;1.23;;
7273;SDS011;3678;60.002;17.846;2023-03-14T05:39:25;2.60;;;1.10;;
7273;SDS011;3678;60.002;17.846;2023-03-14T05:41:52;2.77;;;1.07;;
7273;SDS011;3678;60.002;17.846;2023-03-14T05:44:21;0.90;;;0.60;;
7273;SDS011;3678;60.002;17.846;2023-03-14T05:46:48;3.53;;;1.10;;
7273;SDS011;3678;60.002;17.846;2023-03-14T05:49:15;1.50;;;1.00;;
7273;SDS011;3678;60.002;17.846;2023-03-14T05:51:42;2.47;;;0.90;;
7273;SDS011;3678;60.002;17.846;2023-03-14T05:54:11;1.60;;;1.10;;
7273;SDS011;3678;60.002;17.846;2023-03-14T05:56:38;2.67;;;1.10;;
7273;SDS011;3678;60.002;17.846;2023-03-14T05:59:05;2.97;;;1.03;;
7273;SDS011;3678;60.002;17.846;2023-03-14T06:01:34;1.60;;;1.10;;
7273;SDS011;3678;60.002;17.846;2023-03-14T06:04:01;3.03;;;1.00;;
7273;SDS011;3678;60.002;17.846;2023-03-14T06:06:28;1.03;;;0.90;;
7273;SDS011;3678;60.002;17.846;2023-03-14T06:08:55;2.00;;;0.90;;
7273;SDS011;3678;60.002;17.846;2023-03-14T06:11:24;1.50;;;1.23;;
7273;SDS011;3678;60.002;17.846;2023-03-14T06:13:51;2.50;;;0.90;;
7273;SDS011;3678;60.002;17.846;2023-03-14T06:16:18;1.03;;;0.90;;
7273;SDS011;3678;60.002;17.846;2023-03-14T06:18:45;4.90;;;1.50;;
7273;SDS011;3678;60.002;17.846;2023-03-14T06:21:14;2.03;;;1.00;;
7273;SDS011;3678;60.002;17.846;2023-03-14T06:23:41;1.00;;;0.87;;
7273;SDS011;3678;60.002;17.846;2023-03-14T06:26:08;1.83;;;1.27;;
7273;SDS011;3678;60.002;17.846;2023-03-14T06:28:38;3.07;;;1.20;;
7273;SDS011;3678;60.002;17.846;2023-03-14T06:31:05;0.20;;;0.20;;
7273;SDS011;3678;60.002;17.846;2023-03-14T06:33:32;0.20;;;0.20;;
7273;SDS011;3678;60.002;17.846;2023-03-14T06:35:59;0.20;;;0.20;;
7273;SDS011;3678;60.002;17.846;2023-03-14T06:38:27;0.30;;;0.30;;
7273;SDS011;3678;60.002;17.846;2023-03-14T06:40:54;0.30;;;0.30;;
7273;SDS011;3678;60.002;17.846;2023-03-14T06:43:21;0.30;;;0.30;;
7273;SDS011;3678;60.002;17.846;2023-03-14T06:45:49;0.30;;;0.30;;
7273;SDS011;3678;60.002;17.846;2023-03-14T06:48:16;0.20;;;0.20;;
7273;SDS011;3678;60.002;17.846;2023-03-14T06:50:44;0.30;;;0.30;;
7273;SDS011;3678;60.002;17.846;2023-03-14T06:53:11;0.30;;;0.30;;
7273;SDS011;3678;60.002;17.846;2023-03-14T06:55:38;0.27;;;0.27;;
7273;SDS011;3678;60.002;17.846;2023-03-14T06:58:05;0.30;;;0.30;;
7273;SDS011;3678;60.002;17.846;2023-03-14T07:00:33;0.30;;;0.30;;
7273;SDS011;3678;60.002;17.846;2023-03-14T07:03:02;0.30;;;0.30;;
7273;SDS011;3678;60.002;17.846;2023-03-14T07:05:29;0.30;;;0.30;;
7273;SDS011;3678;60.002;17.846;2023-03-14T07:07:56;0.30;;;0.30;;
7273;SDS011;3678;60.002;17.846;2023-03-14T07:10:23;0.30;;;0.30;;
7273;SDS011;3678;60.002;17.846;2023-03-14T07:12:51;0.30;;;0.30;;
7273;SDS011;3678;60.002;17.846;2023-03-14T07:15:18;0.30;;;0.30;;
7273;SDS011;3678;60.002;17.846;2023-03-14T07:17:46;0.20;;;0.20;;
7273;SDS011;3678;60.002;17.846;2023-03-14T07:20:15;0.30;;;0.30;;
7273;SDS011;3678;60.002;17.846;2023-03-14T07:22:42;0.20;;;0.20;;
7273;SDS011;3678;60.002;17.846;2023-03-14T07:25:10;0.30;;;0.30;;
7273;SDS011;3678;60.002;17.846;2023-03-14T07:27:37;0.30;;;0.30;;
7273;SDS011;3678;60.002;17.846;2023-03-14T07:30:05;0.37;;;0.37;;
7273;SDS011;3678;60.002;17.846;2023-03-14T07:32:32;0.30;;;0.30;;
7273;SDS011;3678;60.002;17.846;2023-03-14T07:34:59;0.20;;;0.20;;
7273;SDS011;3678;60.002;17.846;2023-03-14T07:37:28;0.30;;;0.30;;
7273;SDS011;3678;60.002;17.846;2023-03-14T07:39:55;0.30;;;0.30;;
7273;SDS011;3678;60.002;17.846;2023-03-14T07:42:22;0.30;;;0.30;;
7273;SDS011;3678;60.002;17.846;2023-03-14T07:44:49;0.30;;;0.30;;
7273;SDS011;3678;60.002;17.846;2023-03-14T07:47:16;0.30;;;0.30;;
7273;SDS011;3678;60.002;17.846;2023-03-14T07:49:43;0.30;;;0.30;;
7273;SDS011;3678;60.002;17.846;2023-03-14T07:52:11;0.30;;;0.30;;
7273;SDS011;3678;60.002;17.846;2023-03-14T07:54:39;0.30;;;0.30;;
7273;SDS011;3678;60.002;17.846;2023-03-14T07:57:07;0.30;;;0.30;;
7273;SDS011;3678;60.002;17.846;2023-03-14T07:59:34;0.30;;;0.30;;
7273;SDS011;3678;60.002;17.846;2023-03-14T08:02:01;0.30;;;0.30;;
7273;SDS011;3678;60.002;17.846;2023-03-14T08:04:30;0.30;;;0.30;;
7273;SDS011;3678;60.002;17.846;2023-03-14T08:06:57;0.30;;;0.30;;
7273;SDS011;3678;60.002;17.846;2023-03-14T08:09:25;0.30;;;0.30;;
7273;SDS011;3678;60.002;17.846;2023-03-14T08:11:53;0.30;;;0.30;;
7273;SDS011;3678;60.002;17.846;2023-03-14T08:14:20;0.30;;;0.30;;
7273;SDS011;3678;60.002;17.846;2023-03-14T08:16:48;0.30;;;0.30;;
7273;SDS011;3678;60.002;17.846;2023-03-14T08:19:16;0.30;;;0.30;;
7273;SDS011;3678;60.002;17.846;2023-03-14T08:21:43;0.40;;;0.40;;
7273;SDS011;3678;60.002;17.846;2023-03-14T08:24:10;0.40;;;0.40;;
7273;SDS011;3678;60.002;17.846;2023-03-14T08:26:37;0.40;;;0.40;;
7273;SDS011;3678;60.002;17.846;2023-03-14T08:29:06;0.30;;;0.30;;
7273;SDS011;3678;60.002;17.846;2023-03-14T08:31:33;0.40;;;0.40;;
7273;SDS011;3678;60.002;17.846;2023-03-14T08:34:00;0.30;;;0.30;;
7273;SDS011;3678;60.002;17.846;2023-03-14T08:36:28;0.40;;;0.40;;
7273;SDS011;3678;60.002;17.846;2023-03-14T08:38:56;0.40;;;0.40;;
7273;SDS011;3678;60.002;17.846;2023-03-14T08:41:23;0.40;;;0.40;;
7273;SDS011;3678;60.002;17.846;2023-03-14T08:43:50;0.40;;;0.40;;
7273;SDS011;3678;60.002;17.846;2023-03-14T08:46:19;0.40;;;0.40;;
7273;SDS011;3678;60.002;17.846;2023-03-14T08:48:46;0.40;;;0.40;;
7273;SDS011;3678;60.002;17.846;2023-03-14T08:51:14;0.40;;;0.40;;
7273;SDS011;3678;60.002;17.846;2023-03-14T08:53:42;0.40;;;0.40;;
7273;SDS011;3678;60.002;17.846;2023-03-14T08:56:09;0.40;;;0.40;;
7273;SDS011;3678;60.002;17.846;2023-03-14T08:58:36;0.40;;;0.40;;
7273;SDS011;3678;60.002;17.846;2023-03-14T09:01:03;0.40;;;0.40;;
7273;SDS011;3678;60.002;17.846;2023-03-14T09:03:32;0.40;;;0.40;;
7273;SDS011;3678;60.002;17.846;2023-03-14T09:06:03;0.40;;;0.40;;
7273;SDS011;3678;60.002;17.846;2023-03-14T09:08:30;0.40;;;0.40;;
7273;SDS011;3678;60.002;17.846;2023-03-14T09:10:58;0.40;;;0.40;;
7273;SDS011;3678;60.002;17.846;2023-03-14T09:13:25;0.40;;;0.40;;
7273;SDS011;3678;60.002;17.846;2023-03-14T09:15:53;0.40;;;0.40;;
7273;SDS011;3678;60.002;17.846;2023-03-14T09:18:20;0.40;;;0.40;;
7273;SDS011;3678;60.002;17.846;2023-03-14T09:20:49;0.40;;;0.40;;
7273;SDS011;3678;60.002;17.846;2023-03-14T09:23:16;0.40;;;0.40;;
7273;SDS011;3678;60.002;17.846;2023-03-14T09:25:43;0.40;;;0.40;;
7273;SDS011;3678;60.002;17.846;2023-03-14T09:28:10;0.40;;;0.40;;
7273;SDS011;3678;60.002;17.846;2023-03-14T09:30:38;0.40;;;0.40;;
7273;SDS011;3678;60.002;17.846;2023-03-14T09:33:05;0.40;;;0.40;;
7273;SDS011;3678;60.002;17.846;2023-03-14T09:35:33;0.40;;;0.40;;
7273;SDS011;3678;60.002;17.846;2023-03-14T09:38:01;0.40;;;0.40;;
7273;SDS011;3678;60.002;17.846;2023-03-14T09:40:31;0.40;;;0.40;;
7273;SDS011;3678;60.002;17.846;2023-03-14T09:42:59;0.40;;;0.40;;
7273;SDS011;3678;60.002;17.846;2023-03-14T09:45:27;0.40;;;0.40;;
7273;SDS011;3678;60.002;17.846;2023-03-14T09:47:55;0.40;;;0.40;;
7273;SDS011;3678;60.002;17.846;2023-03-14T09:50:23;0.40;;;0.40;;
7273;SDS011;3678;60.002;17.846;2023-03-14T09:52:52;0.40;;;0.40;;
7273;SDS011;3678;60.002;17.846;2023-03-14T09:55:24;0.40;;;0.40;;
7273;SDS011;3678;60.002;17.846;2023-03-14T09:57:54;0.40;;;0.40;;
7273;SDS011;3678;60.002;17.846;2023-03-14T10:00:23;0.40;;;0.40;;
7273;SDS011;3678;60.002;17.846;2023-03-14T10:02:53;0.40;;;0.40;;
7273;SDS011;3678;60.002;17.846;2023-03-14T10:05:21;0.40;;;0.40;;
7273;SDS011;3678;60.002;17.846;2023-03-14T10:07:48;0.40;;;0.40;;
7273;SDS011;3678;60.002;17.846;2023-03-14T10:10:16;0.40;;;0.40;;
7273;SDS011;3678;60.002;17.846;2023-03-14T10:12:46;0.40;;;0.40;;
7273;SDS011;3678;60.002;17.846;2023-03-14T10:15:14;0.40;;;0.40;;
7273;SDS011;3678;60.002;17.846;2023-03-14T10:17:43;0.40;;;0.40;;
7273;SDS011;3678;60.002;17.846;2023-03-14T10:20:26;0.50;;;0.50;;
7273;SDS011;3678;60.002;17.846;2023-03-14T10:22:57;0.40;;;0.40;;
7273;SDS011;3678;60.002;17.846;2023-03-14T10:25:26;0.40;;;0.40;;
7273;SDS011;3678;60.002;17.846;2023-03-14T10:27:54;0.40;;;0.40;;
7273;SDS011;3678;60.002;17.846;2023-03-14T10:30:37;0.40;;;0.40;;
7273;SDS011;3678;60.002;17.846;2023-03-14T10:33:09;0.40;;;0.40;;
7273;SDS011;3678;60.002;17.846;2023-03-14T10:35:36;0.40;;;0.40;;
7273;SDS011;3678;60.002;17.846;2023-03-14T10:38:04;0.40;;;0.40;;
7273;SDS011;3678;60.002;17.846;2023-03-14T10:40:32;0.40;;;0.40;;
7273;SDS011;3678;60.002;17.846;2023-03-14T10:43:03;0.40;;;0.40;;
7273;SDS011;3678;60.002;17.846;2023-03-14T10:45:32;0.40;;;0.40;;
7273;SDS011;3678;60.002;17.846;2023-03-14T10:48:06;0.40;;;0.40;;
7273;SDS011;3678;60.002;17.846;2023-03-14T10:50:33;0.40;;;0.40;;
7273;SDS011;3678;60.002;17.846;2023-03-14T10:53:01;0.40;;;0.40;;
7273;SDS011;3678;60.002;17.846;2023-03-14T10:55:38;0.40;;;0.40;;
7273;SDS011;3678;60.002;17.846;2023-03-14T10:58:17;0.40;;;0.40;;
7273;SDS011;3678;60.002;17.846;2023-03-14T11:00:45;0.40;;;0.40;;
7273;SDS011;3678;60.002;17.846;2023-03-14T11:03:14;0.40;;;0.40;;
7273;SDS011;3678;60.002;17.846;2023-03-14T11:05:43;0.50;;;0.50;;
7273;SDS011;3678;60.002;17.846;2023-03-14T11:08:14;0.40;;;0.40;;
7273;SDS011;3678;60.002;17.846;2023-03-14T11:10:42;0.40;;;0.40;;
7273;SDS011;3678;60.002;17.846;2023-03-14T11:13:15;0.40;;;0.40;;
7273;SDS011;3678;60.002;17.846;2023-03-14T11:15:48;0.40;;;0.40;;
7273;SDS011;3678;60.002;17.846;2023-03-14T11:18:21;0.40;;;0.40;;
7273;SDS011;3678;60.002;17.846;2023-03-14T11:20:51;0.40;;;0.40;;
7273;SDS011;3678;60.002;17.846;2023-03-14T11:23:20;0.40;;;0.40;;
7273;SDS011;3678;60.002;17.846;2023-03-14T11:25:49;0.40;;;0.40;;
7273;SDS011;3678;60.002;17.846;2023-03-14T11:28:21;0.40;;;0.40;;
7273;SDS011;3678;60.002;17.846;2023-03-14T11:30:53;0.40;;;0.40;;
7273;SDS011;3678;60.002;17.846;2023-03-14T11:33:22;0.40;;;0.40;;
7273;SDS011;3678;60.002;17.846;2023-03-14T11:35:52;0.50;;;0.50;;
7273;SDS011;3678;60.002;17.846;2023-03-14T11:38:24;0.40;;;0.40;;
7273;SDS011;3678;60.002;17.846;2023-03-14T11:40:55;0.40;;;0.40;;
7273;SDS011;3678;60.002;17.846;2023-03-14T11:43:25;0.40;;;0.40;;
7273;SDS011;3678;60.002;17.846;2023-03-14T11:45:54;0.40;;;0.40;;
7273;SDS011;3678;60.002;17.846;2023-03-14T11:48:25;0.40;;;0.40;;
7273;SDS011;3678;60.002;17.846;2023-03-14T11:50:55;0.40;;;0.40;;
7273;SDS011;3678;60.002;17.846;2023-03-14T11:53:28;0.40;;;0.40;;
7273;SDS011;3678;60.002;17.846;2023-03-14T11:55:56;0.40;;;0.40;;
7273;SDS011;3678;60.002;17.846;2023-03-14T11:58:25;0.40;;;0.40;;
7273;SDS011;3678;60.002;17.846;2023-03-14T12:00:53;0.40;;;0.40;;
7273;SDS011;3678;60.002;17.846;2023-03-14T12:03:23;0.40;;;0.40;;
7273;SDS011;3678;60.002;17.846;2023-03-14T12:05:55;0.40;;;0.40;;
7273;SDS011;3678;60.002;17.846;2023-03-14T12:11:12;0.40;;;0.40;;
7273;SDS011;3678;60.002;17.846;2023-03-14T12:13:40;0.40;;;0.40;;
7273;SDS011;3678;60.002;17.846;2023-03-14T12:16:19;0.40;;;0.40;;
7273;SDS011;3678;60.002;17.846;2023-03-14T12:18:49;0.40;;;0.40;;
7273;SDS011;3678;60.002;17.846;2023-03-14T12:21:17;0.40;;;0.40;;
7273;SDS011;3678;60.002;17.846;2023-03-14T12:23:45;0.40;;;0.40;;
7273;SDS011;3678;60.002;17.846;2023-03-14T12:26:16;0.40;;;0.40;;
7273;SDS011;3678;60.002;17.846;2023-03-14T12:28:44;0.40;;;0.40;;
7273;SDS011;3678;60.002;17.846;2023-03-14T12:31:35;0.40;;;0.40;;
7273;SDS011;3678;60.002;17.846;2023-03-14T12:34:29;0.40;;;0.40;;
7273;SDS011;3678;60.002;17.846;2023-03-14T12:36:53;0.40;;;0.40;;
7273;SDS011;3678;60.002;17.846;2023-03-14T12:39:25;0.40;;;0.40;;
7273;SDS011;3678;60.002;17.846;2023-03-14T12:42:01;0.40;;;0.40;;
7273;SDS011;3678;60.002;17.846;2023-03-14T12:44:39;0.40;;;0.40;;
7273;SDS011;3678;60.002;17.846;2023-03-14T12:49:54;0.40;;;0.40;;
7273;SDS011;3678;60.002;17.846;2023-03-14T12:52:23;0.40;;;0.40;;
7273;SDS011;3678;60.002;17.846;2023-03-14T12:54:57;0.40;;;0.40;;
7273;SDS011;3678;60.002;17.846;2023-03-14T12:57:27;0.40;;;0.40;;
7273;SDS011;3678;60.002;17.846;2023-03-14T12:59:55;0.40;;;0.40;;
7273;SDS011;3678;60.002;17.846;2023-03-14T13:02:24;0.40;;;0.40;;
7273;SDS011;3678;60.002;17.846;2023-03-14T13:04:59;0.40;;;0.40;;
7273;SDS011;3678;60.002;17.846;2023-03-14T13:07:31;0.40;;;0.40;;
7273;SDS011;3678;60.002;17.846;2023-03-14T13:10:03;0.40;;;0.40;;
7273;SDS011;3678;60.002;17.846;2023-03-14T13:12:37;0.40;;;0.40;;
7273;SDS011;3678;60.002;17.846;2023-03-14T13:15:16;0.40;;;0.40;;
7273;SDS011;3678;60.002;17.846;2023-03-14T13:17:45;0.40;;;0.40;;
7273;SDS011;3678;60.002;17.846;2023-03-14T13:20:15;0.40;;;0.40;;
7273;SDS011;3678;60.002;17.846;2023-03-14T13:22:45;0.40;;;0.40;;
7273;SDS011;3678;60.002;17.846;2023-03-14T13:25:13;0.40;;;0.40;;
7273;SDS011;3678;60.002;17.846;2023-03-14T13:27:41;0.40;;;0.40;;
7273;SDS011;3678;60.002;17.846;2023-03-14T13:30:14;0.40;;;0.40;;
7273;SDS011;3678;60.002;17.846;2023-03-14T13:32:42;0.40;;;0.40;;
7273;SDS011;3678;60.002;17.846;2023-03-14T13:35:18;0.40;;;0.40;;
7273;SDS011;3678;60.002;17.846;2023-03-14T13:37:46;0.40;;;0.40;;
7273;SDS011;3678;60.002;17.846;2023-03-14T13:40:21;0.40;;;0.40;;
7273;SDS011;3678;60.002;17.846;2023-03-14T13:42:59;0.40;;;0.40;;
7273;SDS011;3678;60.002;17.846;2023-03-14T13:45:26;0.40;;;0.40;;
7273;SDS011;3678;60.002;17.846;2023-03-14T13:47:53;0.40;;;0.40;;
7273;SDS011;3678;60.002;17.846;2023-03-14T13:50:22;0.40;;;0.40;;
7273;SDS011;3678;60.002;17.846;2023-03-14T13:52:54;0.40;;;0.40;;
7273;SDS011;3678;60.002;17.846;2023-03-14T13:55:23;0.40;;;0.40;;
7273;SDS011;3678;60.002;17.846;2023-03-14T13:57:50;0.40;;;0.40;;
7273;SDS011;3678;60.002;17.846;2023-03-14T14:00:20;0.40;;;0.40;;
7273;SDS011;3678;60.002;17.846;2023-03-14T14:02:48;0.40;;;0.40;;
7273;SDS011;3678;60.002;17.846;2023-03-14T14:05:16;0.40;;;0.40;;
7273;SDS011;3678;60.002;17.846;2023-03-14T14:07:45;0.40;;;0.40;;
7273;SDS011;3678;60.002;17.846;2023-03-14T14:10:12;0.40;;;0.40;;
7273;SDS011;3678;60.002;17.846;2023-03-14T14:12:41;0.40;;;0.40;;
7273;SDS011;3678;60.002;17.846;2023-03-14T14:15:11;0.40;;;0.40;;
7273;SDS011;3678;60.002;17.846;2023-03-14T14:17:41;0.40;;;0.40;;
7273;SDS011;3678;60.002;17.846;2023-03-14T14:20:12;0.40;;;0.40;;
7273;SDS011;3678;60.002;17.846;2023-03-14T14:22:41;0.40;;;0.40;;
7273;SDS011;3678;60.002;17.846;2023-03-14T14:25:13;0.40;;;0.40;;
7273;SDS011;3678;60.002;17.846;2023-03-14T14:27:42;0.40;;;0.40;;
7273;SDS011;3678;60.002;17.846;2023-03-14T14:30:26;0.40;;;0.40;;
7273;SDS011;3678;60.002;17.846;2023-03-14T14:33:06;0.40;;;0.40;;
7273;SDS011;3678;60.002;17.846;2023-03-14T14:35:37;0.40;;;0.40;;
7273;SDS011;3678;60.002;17.846;2023-03-14T14:38:08;0.40;;;0.40;;
7273;SDS011;3678;60.002;17.846;2023-03-14T14:40:44;0.40;;;0.40;;
7273;SDS011;3678;60.002;17.846;2023-03-14T14:43:12;0.40;;;0.40;;
7273;SDS011;3678;60.002;17.846;2023-03-14T14:45:42;0.40;;;0.40;;
7273;SDS011;3678;60.002;17.846;2023-03-14T14:48:10;0.40;;;0.40;;
7273;SDS011;3678;60.002;17.846;2023-03-14T14:50:38;0.40;;;0.40;;
7273;SDS011;3678;60.002;17.846;2023-03-14T14:53:18;0.40;;;0.40;;
7273;SDS011;3678;60.002;17.846;2023-03-14T14:55:49;0.40;;;0.40;;
7273;SDS011;3678;60.002;17.846;2023-03-14T14:58:17;0.40;;;0.40;;
7273;SDS011;3678;60.002;17.846;2023-03-14T15:00:49;0.40;;;0.40;;
7273;SDS011;3678;60.002;17.846;2023-03-14T15:03:17;0.40;;;0.40;;
7273;SDS011;3678;60.002;17.846;2023-03-14T15:05:44;0.40;;;0.40;;
7273;SDS011;3678;60.002;17.846;2023-03-14T15:08:11;0.50;;;0.50;;
7273;SDS011;3678;60.002;17.846;2023-03-14T15:10:39;0.40;;;0.40;;
7273;SDS011;3678;60.002;17.846;2023-03-14T15:13:07;0.40;;;0.40;;
7273;SDS011;3678;60.002;17.846;2023-03-14T15:15:34;0.40;;;0.40;;